This is the latest recevied weather packets stored in our database for station/object KJ6APE. If no packets are shown the sender has not sent any weather packets the latest 1 day(s).
| Time | Temp. | Humidity | Pressure | Rain* | Wind** | Luminosity | Snow |
|---|---|---|---|---|---|---|---|
| 1778039100 | 15° C | 74% | 1017.1 hPa | 0 mm | 0.45 m/s, 100° | 0 W/m² | - |
| 1778038797 | 15° C | 74% | 1017.1 hPa | 0 mm | 0.45 m/s, 89° | 0 W/m² | - |
| 1778038495 | 15° C | 73% | 1016.9 hPa | 0 mm | 0.45 m/s, 100° | 0 W/m² | - |
| 1778038191 | 15° C | 73% | 1016.9 hPa | 0 mm | 0.45 m/s, 103° | 0 W/m² | - |
| 1778037889 | 15° C | 72% | 1017 hPa | 0 mm | 1.79 m/s, 185° | 0 W/m² | - |
| 1778037584 | 15° C | 73% | 1016.6 hPa | 0 mm | 0 m/s | 0 W/m² | - |
| 1778037282 | 15° C | 72% | 1016.5 hPa | 0 mm | 0 m/s | 0 W/m² | - |
| 1778036980 | 15° C | 72% | 1016.6 hPa | 0 mm | 0.45 m/s, 96° | 1 W/m² | - |
| 1778036678 | 15° C | 72% | 1016.4 hPa | 0 mm | 0 m/s | 2 W/m² | - |
| 1778036374 | 15.56° C | 71% | 1016.5 hPa | 0 mm | 0.45 m/s, 75° | 3 W/m² | - |
| 1778036071 | 15.56° C | 71% | 1016.4 hPa | 0 mm | 0.89 m/s, 56° | 4 W/m² | - |
| 1778035768 | 15.56° C | 70% | 1016.3 hPa | 0 mm | 2.24 m/s, 179° | 5 W/m² | - |
| 1778035465 | 15.56° C | 70% | 1016.3 hPa | 0 mm | 0.45 m/s, 81° | 7 W/m² | - |
| 1778035160 | 15.56° C | 70% | 1016.3 hPa | 0 mm | 0.45 m/s, 142° | 10 W/m² | - |
| 1778034858 | 15.56° C | 70% | 1016.3 hPa | 0 mm | 0.89 m/s, 101° | 12 W/m² | - |
| 1778034554 | 15.56° C | 70% | 1016.3 hPa | 0 mm | 0.45 m/s, 94° | 13 W/m² | - |
| 1778034252 | 15.56° C | 70% | 1016.2 hPa | 0 mm | 0.89 m/s, 178° | 17 W/m² | - |
| 1778033950 | 15.56° C | 70% | 1016.1 hPa | 0 mm | 2.68 m/s, 208° | 19 W/m² | - |
| 1778033647 | 16.11° C | 70% | 1016 hPa | 0 mm | 0 m/s | 23 W/m² | - |
| 1778033343 | 16.11° C | 70% | 1016.1 hPa | 0 mm | 0 m/s | 29 W/m² | - |
| 1778033042 | 16.11° C | 70% | 1016 hPa | 0 mm | 0.89 m/s, 71° | 36 W/m² | - |
| 1778032739 | 16.11° C | 69% | 1015.8 hPa | 0 mm | 1.34 m/s, 129° | 43 W/m² | - |
| 1778032436 | 16.11° C | 69% | 1015.7 hPa | 0 mm | 1.34 m/s, 138° | 56 W/m² | - |
| 1778032133 | 16.11° C | 69% | 1015.9 hPa | 0 mm | 0.45 m/s, 87° | 62 W/m² | - |
| 1778031829 | 16.67° C | 69% | 1015.8 hPa | 0 mm | 1.34 m/s, 185° | 66 W/m² | - |
* Rain latest hour (hover to see other rain measurements)
** Current wind speed in m/s (hover to see current wind gust speed)